sensor_id;sensor_type;location;lat;lon;timestamp;P1;durP1;ratioP1;P2;durP2;ratioP2
72557;SDS011;60583;50.094;8.748;2023-06-10T00:01:47;10.20;;;8.75;;
72557;SDS011;60583;50.094;8.748;2023-06-10T00:04:13;10.25;;;8.38;;
72557;SDS011;60583;50.094;8.748;2023-06-10T00:06:43;10.30;;;8.45;;
72557;SDS011;60583;50.094;8.748;2023-06-10T00:09:09;11.63;;;9.05;;
72557;SDS011;60583;50.094;8.748;2023-06-10T00:11:35;10.85;;;9.05;;
72557;SDS011;60583;50.094;8.748;2023-06-10T00:14:01;11.00;;;8.85;;
72557;SDS011;60583;50.094;8.748;2023-06-10T00:16:27;12.50;;;9.27;;
72557;SDS011;60583;50.094;8.748;2023-06-10T00:18:52;13.30;;;9.02;;
72557;SDS011;60583;50.094;8.748;2023-06-10T00:21:20;9.63;;;8.63;;
72557;SDS011;60583;50.094;8.748;2023-06-10T00:23:46;10.60;;;8.82;;
72557;SDS011;60583;50.094;8.748;2023-06-10T00:26:11;9.95;;;8.88;;
72557;SDS011;60583;50.094;8.748;2023-06-10T00:28:37;10.82;;;8.80;;
72557;SDS011;60583;50.094;8.748;2023-06-10T00:31:02;9.77;;;8.68;;
72557;SDS011;60583;50.094;8.748;2023-06-10T00:33:29;10.68;;;8.57;;
72557;SDS011;60583;50.094;8.748;2023-06-10T00:35:54;10.85;;;9.18;;
72557;SDS011;60583;50.094;8.748;2023-06-10T00:38:20;10.80;;;8.85;;
72557;SDS011;60583;50.094;8.748;2023-06-10T00:40:45;10.52;;;8.77;;
72557;SDS011;60583;50.094;8.748;2023-06-10T00:43:11;11.73;;;9.20;;
72557;SDS011;60583;50.094;8.748;2023-06-10T00:45:36;10.63;;;8.55;;
72557;SDS011;60583;50.094;8.748;2023-06-10T00:48:02;10.27;;;8.85;;
72557;SDS011;60583;50.094;8.748;2023-06-10T00:50:28;10.27;;;8.75;;
72557;SDS011;60583;50.094;8.748;2023-06-10T00:52:54;11.40;;;9.18;;
72557;SDS011;60583;50.094;8.748;2023-06-10T00:55:20;10.25;;;8.88;;
72557;SDS011;60583;50.094;8.748;2023-06-10T00:57:46;10.95;;;9.55;;
72557;SDS011;60583;50.094;8.748;2023-06-10T01:00:13;12.18;;;9.07;;
72557;SDS011;60583;50.094;8.748;2023-06-10T01:02:40;10.13;;;8.82;;
72557;SDS011;60583;50.094;8.748;2023-06-10T01:05:06;11.20;;;8.85;;
72557;SDS011;60583;50.094;8.748;2023-06-10T01:07:36;10.95;;;9.20;;
72557;SDS011;60583;50.094;8.748;2023-06-10T01:10:06;12.60;;;9.52;;
72557;SDS011;60583;50.094;8.748;2023-06-10T01:12:34;11.90;;;9.35;;
72557;SDS011;60583;50.094;8.748;2023-06-10T01:15:06;10.43;;;9.18;;
72557;SDS011;60583;50.094;8.748;2023-06-10T01:17:33;12.05;;;9.38;;
72557;SDS011;60583;50.094;8.748;2023-06-10T01:19:58;12.38;;;9.18;;
72557;SDS011;60583;50.094;8.748;2023-06-10T01:22:24;10.50;;;8.73;;
72557;SDS011;60583;50.094;8.748;2023-06-10T01:24:53;11.82;;;8.80;;
72557;SDS011;60583;50.094;8.748;2023-06-10T01:27:23;11.30;;;8.88;;
72557;SDS011;60583;50.094;8.748;2023-06-10T01:29:58;12.20;;;9.23;;
72557;SDS011;60583;50.094;8.748;2023-06-10T01:32:32;11.32;;;9.23;;
72557;SDS011;60583;50.094;8.748;2023-06-10T01:35:02;10.35;;;9.13;;
72557;SDS011;60583;50.094;8.748;2023-06-10T01:37:28;11.75;;;8.77;;
72557;SDS011;60583;50.094;8.748;2023-06-10T01:39:57;11.43;;;8.32;;
72557;SDS011;60583;50.094;8.748;2023-06-10T01:42:24;9.90;;;8.30;;
72557;SDS011;60583;50.094;8.748;2023-06-10T01:44:50;10.23;;;8.82;;
72557;SDS011;60583;50.094;8.748;2023-06-10T01:47:16;11.20;;;8.73;;
72557;SDS011;60583;50.094;8.748;2023-06-10T01:49:42;11.57;;;8.75;;
72557;SDS011;60583;50.094;8.748;2023-06-10T01:52:07;9.82;;;8.23;;
72557;SDS011;60583;50.094;8.748;2023-06-10T01:54:33;10.20;;;9.05;;
72557;SDS011;60583;50.094;8.748;2023-06-10T01:57:00;10.77;;;8.50;;
72557;SDS011;60583;50.094;8.748;2023-06-10T01:59:26;11.25;;;8.98;;
72557;SDS011;60583;50.094;8.748;2023-06-10T02:01:52;10.60;;;8.88;;
72557;SDS011;60583;50.094;8.748;2023-06-10T02:04:17;10.70;;;8.90;;
72557;SDS011;60583;50.094;8.748;2023-06-10T02:06:42;12.98;;;9.90;;
72557;SDS011;60583;50.094;8.748;2023-06-10T02:09:08;11.60;;;9.27;;
72557;SDS011;60583;50.094;8.748;2023-06-10T02:11:33;10.95;;;9.10;;
72557;SDS011;60583;50.094;8.748;2023-06-10T02:13:59;11.00;;;8.38;;
72557;SDS011;60583;50.094;8.748;2023-06-10T02:16:24;12.98;;;8.95;;
72557;SDS011;60583;50.094;8.748;2023-06-10T02:18:50;10.90;;;9.00;;
72557;SDS011;60583;50.094;8.748;2023-06-10T02:21:15;12.32;;;8.55;;
72557;SDS011;60583;50.094;8.748;2023-06-10T02:23:40;10.18;;;8.65;;
72557;SDS011;60583;50.094;8.748;2023-06-10T02:26:06;12.93;;;8.48;;
72557;SDS011;60583;50.094;8.748;2023-06-10T02:28:31;12.02;;;9.20;;
72557;SDS011;60583;50.094;8.748;2023-06-10T02:30:57;10.23;;;8.48;;
72557;SDS011;60583;50.094;8.748;2023-06-10T02:33:23;9.90;;;8.73;;
72557;SDS011;60583;50.094;8.748;2023-06-10T02:35:49;11.48;;;8.98;;
72557;SDS011;60583;50.094;8.748;2023-06-10T02:38:14;10.07;;;8.50;;
72557;SDS011;60583;50.094;8.748;2023-06-10T02:40:40;10.20;;;8.98;;
72557;SDS011;60583;50.094;8.748;2023-06-10T02:43:05;11.60;;;9.13;;
72557;SDS011;60583;50.094;8.748;2023-06-10T02:45:31;11.20;;;9.02;;
72557;SDS011;60583;50.094;8.748;2023-06-10T02:47:56;12.00;;;8.70;;
72557;SDS011;60583;50.094;8.748;2023-06-10T02:50:22;10.45;;;8.60;;
72557;SDS011;60583;50.094;8.748;2023-06-10T02:52:48;10.27;;;8.68;;
72557;SDS011;60583;50.094;8.748;2023-06-10T02:55:13;10.45;;;9.05;;
72557;SDS011;60583;50.094;8.748;2023-06-10T02:57:39;11.00;;;8.85;;
72557;SDS011;60583;50.094;8.748;2023-06-10T03:00:05;11.77;;;8.82;;
72557;SDS011;60583;50.094;8.748;2023-06-10T03:02:34;10.70;;;8.38;;
72557;SDS011;60583;50.094;8.748;2023-06-10T03:05:03;11.70;;;8.75;;
72557;SDS011;60583;50.094;8.748;2023-06-10T03:07:30;10.05;;;8.63;;
72557;SDS011;60583;50.094;8.748;2023-06-10T03:09:56;10.38;;;8.23;;
72557;SDS011;60583;50.094;8.748;2023-06-10T03:12:21;10.88;;;8.52;;
72557;SDS011;60583;50.094;8.748;2023-06-10T03:14:46;11.60;;;8.55;;
72557;SDS011;60583;50.094;8.748;2023-06-10T03:17:12;11.50;;;8.57;;
72557;SDS011;60583;50.094;8.748;2023-06-10T03:19:37;10.60;;;8.10;;
72557;SDS011;60583;50.094;8.748;2023-06-10T03:22:07;10.13;;;8.50;;
72557;SDS011;60583;50.094;8.748;2023-06-10T03:24:34;10.95;;;8.50;;
72557;SDS011;60583;50.094;8.748;2023-06-10T03:27:01;11.52;;;8.75;;
72557;SDS011;60583;50.094;8.748;2023-06-10T03:29:27;10.38;;;8.50;;
72557;SDS011;60583;50.094;8.748;2023-06-10T03:31:52;11.38;;;8.50;;
72557;SDS011;60583;50.094;8.748;2023-06-10T03:34:18;10.50;;;7.95;;
72557;SDS011;60583;50.094;8.748;2023-06-10T03:36:43;9.73;;;8.23;;
72557;SDS011;60583;50.094;8.748;2023-06-10T03:39:08;10.45;;;8.25;;
72557;SDS011;60583;50.094;8.748;2023-06-10T03:41:34;11.38;;;8.23;;
72557;SDS011;60583;50.094;8.748;2023-06-10T03:44:00;11.35;;;8.50;;
72557;SDS011;60583;50.094;8.748;2023-06-10T03:46:26;11.30;;;8.43;;
72557;SDS011;60583;50.094;8.748;2023-06-10T03:48:51;11.13;;;8.60;;
72557;SDS011;60583;50.094;8.748;2023-06-10T03:51:16;9.70;;;8.18;;
72557;SDS011;60583;50.094;8.748;2023-06-10T03:53:42;10.18;;;8.40;;
72557;SDS011;60583;50.094;8.748;2023-06-10T03:56:08;9.73;;;8.43;;
72557;SDS011;60583;50.094;8.748;2023-06-10T03:58:33;12.25;;;8.27;;
72557;SDS011;60583;50.094;8.748;2023-06-10T04:00:59;11.10;;;8.82;;
72557;SDS011;60583;50.094;8.748;2023-06-10T04:03:25;10.88;;;8.45;;
72557;SDS011;60583;50.094;8.748;2023-06-10T04:05:51;11.05;;;8.23;;
72557;SDS011;60583;50.094;8.748;2023-06-10T04:08:17;10.38;;;8.52;;
72557;SDS011;60583;50.094;8.748;2023-06-10T04:10:42;11.32;;;8.63;;
72557;SDS011;60583;50.094;8.748;2023-06-10T04:13:07;12.15;;;9.35;;
72557;SDS011;60583;50.094;8.748;2023-06-10T04:15:34;10.80;;;8.13;;
72557;SDS011;60583;50.094;8.748;2023-06-10T04:18:00;10.88;;;8.20;;
72557;SDS011;60583;50.094;8.748;2023-06-10T04:20:26;9.88;;;8.07;;
72557;SDS011;60583;50.094;8.748;2023-06-10T04:22:52;10.98;;;8.10;;
72557;SDS011;60583;50.094;8.748;2023-06-10T04:25:17;11.85;;;8.50;;
72557;SDS011;60583;50.094;8.748;2023-06-10T04:27:43;11.02;;;8.45;;
72557;SDS011;60583;50.094;8.748;2023-06-10T04:30:09;11.45;;;8.70;;
72557;SDS011;60583;50.094;8.748;2023-06-10T04:32:35;10.95;;;8.18;;
72557;SDS011;60583;50.094;8.748;2023-06-10T04:35:00;10.88;;;8.45;;
72557;SDS011;60583;50.094;8.748;2023-06-10T04:37:25;12.00;;;8.32;;
72557;SDS011;60583;50.094;8.748;2023-06-10T04:39:51;10.00;;;7.68;;
72557;SDS011;60583;50.094;8.748;2023-06-10T04:42:16;11.93;;;8.60;;
72557;SDS011;60583;50.094;8.748;2023-06-10T04:44:41;9.70;;;7.93;;
72557;SDS011;60583;50.094;8.748;2023-06-10T04:47:08;11.10;;;8.40;;
72557;SDS011;60583;50.094;8.748;2023-06-10T04:49:34;11.23;;;7.72;;
72557;SDS011;60583;50.094;8.748;2023-06-10T04:52:00;9.23;;;7.43;;
72557;SDS011;60583;50.094;8.748;2023-06-10T04:54:25;10.70;;;7.60;;
72557;SDS011;60583;50.094;8.748;2023-06-10T04:56:51;9.98;;;7.68;;
72557;SDS011;60583;50.094;8.748;2023-06-10T04:59:16;10.02;;;7.72;;
72557;SDS011;60583;50.094;8.748;2023-06-10T05:01:42;11.82;;;8.80;;
72557;SDS011;60583;50.094;8.748;2023-06-10T05:04:08;10.45;;;8.10;;
72557;SDS011;60583;50.094;8.748;2023-06-10T05:06:33;10.85;;;8.50;;
72557;SDS011;60583;50.094;8.748;2023-06-10T05:08:59;10.05;;;7.88;;
72557;SDS011;60583;50.094;8.748;2023-06-10T05:11:24;11.30;;;8.10;;
72557;SDS011;60583;50.094;8.748;2023-06-10T05:13:50;8.02;;;6.93;;
72557;SDS011;60583;50.094;8.748;2023-06-10T05:16:15;10.55;;;7.80;;
72557;SDS011;60583;50.094;8.748;2023-06-10T05:18:41;9.70;;;7.07;;
72557;SDS011;60583;50.094;8.748;2023-06-10T05:21:06;10.07;;;7.07;;
72557;SDS011;60583;50.094;8.748;2023-06-10T05:23:32;9.38;;;7.20;;
72557;SDS011;60583;50.094;8.748;2023-06-10T05:25:58;9.30;;;7.20;;
72557;SDS011;60583;50.094;8.748;2023-06-10T05:28:24;9.95;;;7.22;;
72557;SDS011;60583;50.094;8.748;2023-06-10T05:30:51;9.55;;;7.30;;
72557;SDS011;60583;50.094;8.748;2023-06-10T05:33:16;9.30;;;6.60;;
72557;SDS011;60583;50.094;8.748;2023-06-10T05:35:42;10.20;;;8.30;;
72557;SDS011;60583;50.094;8.748;2023-06-10T05:38:07;8.73;;;7.43;;
72557;SDS011;60583;50.094;8.748;2023-06-10T05:40:32;8.93;;;7.13;;
72557;SDS011;60583;50.094;8.748;2023-06-10T05:42:58;9.15;;;7.47;;
72557;SDS011;60583;50.094;8.748;2023-06-10T05:45:23;9.70;;;7.75;;
72557;SDS011;60583;50.094;8.748;2023-06-10T05:47:49;9.30;;;7.15;;
72557;SDS011;60583;50.094;8.748;2023-06-10T05:50:14;10.13;;;6.63;;
72557;SDS011;60583;50.094;8.748;2023-06-10T05:52:40;11.00;;;7.20;;
72557;SDS011;60583;50.094;8.748;2023-06-10T05:55:06;10.13;;;7.63;;
72557;SDS011;60583;50.094;8.748;2023-06-10T05:57:31;9.82;;;7.35;;
72557;SDS011;60583;50.094;8.748;2023-06-10T05:59:57;12.43;;;8.93;;
72557;SDS011;60583;50.094;8.748;2023-06-10T06:02:23;15.05;;;9.98;;
72557;SDS011;60583;50.094;8.748;2023-06-10T06:04:50;10.70;;;7.55;;
72557;SDS011;60583;50.094;8.748;2023-06-10T06:07:15;9.07;;;7.50;;
72557;SDS011;60583;50.094;8.748;2023-06-10T06:09:41;9.43;;;7.18;;
72557;SDS011;60583;50.094;8.748;2023-06-10T06:12:06;10.07;;;7.45;;
72557;SDS011;60583;50.094;8.748;2023-06-10T06:14:36;10.05;;;7.32;;
72557;SDS011;60583;50.094;8.748;2023-06-10T06:17:03;8.57;;;6.80;;
72557;SDS011;60583;50.094;8.748;2023-06-10T06:19:28;8.27;;;6.90;;
72557;SDS011;60583;50.094;8.748;2023-06-10T06:21:54;9.52;;;6.28;;
72557;SDS011;60583;50.094;8.748;2023-06-10T06:24:19;10.10;;;6.97;;
72557;SDS011;60583;50.094;8.748;2023-06-10T06:26:45;9.93;;;7.32;;
72557;SDS011;60583;50.094;8.748;2023-06-10T06:29:10;9.75;;;7.10;;
72557;SDS011;60583;50.094;8.748;2023-06-10T06:31:35;9.50;;;7.28;;
72557;SDS011;60583;50.094;8.748;2023-06-10T06:34:01;10.65;;;7.40;;
72557;SDS011;60583;50.094;8.748;2023-06-10T06:36:27;11.10;;;7.53;;
72557;SDS011;60583;50.094;8.748;2023-06-10T06:38:52;8.82;;;7.00;;
72557;SDS011;60583;50.094;8.748;2023-06-10T06:41:18;9.30;;;7.43;;
72557;SDS011;60583;50.094;8.748;2023-06-10T06:43:43;8.68;;;7.07;;
72557;SDS011;60583;50.094;8.748;2023-06-10T06:46:09;12.15;;;8.38;;
72557;SDS011;60583;50.094;8.748;2023-06-10T06:48:34;11.15;;;8.23;;
72557;SDS011;60583;50.094;8.748;2023-06-10T06:51:00;12.00;;;7.13;;
72557;SDS011;60583;50.094;8.748;2023-06-10T06:53:25;9.15;;;7.53;;
72557;SDS011;60583;50.094;8.748;2023-06-10T06:55:51;9.20;;;7.15;;
72557;SDS011;60583;50.094;8.748;2023-06-10T06:58:16;9.60;;;6.90;;
72557;SDS011;60583;50.094;8.748;2023-06-10T07:00:41;8.68;;;6.75;;
72557;SDS011;60583;50.094;8.748;2023-06-10T07:03:07;9.85;;;7.13;;
72557;SDS011;60583;50.094;8.748;2023-06-10T07:05:32;9.20;;;7.28;;
72557;SDS011;60583;50.094;8.748;2023-06-10T07:07:58;8.43;;;7.18;;
72557;SDS011;60583;50.094;8.748;2023-06-10T07:10:23;9.13;;;7.40;;
72557;SDS011;60583;50.094;8.748;2023-06-10T07:12:50;9.20;;;7.65;;
72557;SDS011;60583;50.094;8.748;2023-06-10T07:15:16;8.07;;;7.05;;
72557;SDS011;60583;50.094;8.748;2023-06-10T07:17:41;9.00;;;7.07;;
72557;SDS011;60583;50.094;8.748;2023-06-10T07:20:07;9.00;;;7.15;;
72557;SDS011;60583;50.094;8.748;2023-06-10T07:22:32;10.93;;;7.68;;
72557;SDS011;60583;50.094;8.748;2023-06-10T07:24:58;9.98;;;7.00;;
72557;SDS011;60583;50.094;8.748;2023-06-10T07:27:23;9.05;;;7.57;;
72557;SDS011;60583;50.094;8.748;2023-06-10T07:29:50;8.95;;;7.22;;
72557;SDS011;60583;50.094;8.748;2023-06-10T07:32:16;9.45;;;7.25;;
72557;SDS011;60583;50.094;8.748;2023-06-10T07:34:41;10.52;;;7.75;;
72557;SDS011;60583;50.094;8.748;2023-06-10T07:37:06;10.43;;;9.00;;
72557;SDS011;60583;50.094;8.748;2023-06-10T07:39:32;9.82;;;8.10;;
72557;SDS011;60583;50.094;8.748;2023-06-10T07:41:57;10.70;;;7.35;;
72557;SDS011;60583;50.094;8.748;2023-06-10T07:44:23;11.35;;;7.47;;
72557;SDS011;60583;50.094;8.748;2023-06-10T07:46:48;9.27;;;7.80;;
72557;SDS011;60583;50.094;8.748;2023-06-10T07:49:14;9.50;;;7.15;;
72557;SDS011;60583;50.094;8.748;2023-06-10T07:51:39;9.85;;;7.47;;
72557;SDS011;60583;50.094;8.748;2023-06-10T07:54:05;9.50;;;7.45;;
72557;SDS011;60583;50.094;8.748;2023-06-10T07:56:30;9.30;;;7.45;;
72557;SDS011;60583;50.094;8.748;2023-06-10T07:58:56;10.85;;;7.95;;
72557;SDS011;60583;50.094;8.748;2023-06-10T08:01:22;9.55;;;7.57;;
72557;SDS011;60583;50.094;8.748;2023-06-10T08:03:48;9.02;;;8.05;;
72557;SDS011;60583;50.094;8.748;2023-06-10T08:06:14;8.60;;;7.70;;
72557;SDS011;60583;50.094;8.748;2023-06-10T08:08:39;10.57;;;8.10;;
72557;SDS011;60583;50.094;8.748;2023-06-10T08:11:10;9.25;;;7.68;;
72557;SDS011;60583;50.094;8.748;2023-06-10T08:13:36;9.23;;;7.72;;
72557;SDS011;60583;50.094;8.748;2023-06-10T08:16:01;10.05;;;7.95;;
72557;SDS011;60583;50.094;8.748;2023-06-10T08:18:28;10.88;;;7.70;;
72557;SDS011;60583;50.094;8.748;2023-06-10T08:20:54;8.80;;;7.70;;
72557;SDS011;60583;50.094;8.748;2023-06-10T08:23:19;9.13;;;8.07;;
72557;SDS011;60583;50.094;8.748;2023-06-10T08:25:45;8.50;;;7.55;;
72557;SDS011;60583;50.094;8.748;2023-06-10T08:28:10;8.40;;;7.40;;
72557;SDS011;60583;50.094;8.748;2023-06-10T08:30:36;9.90;;;7.80;;
72557;SDS011;60583;50.094;8.748;2023-06-10T08:33:01;8.73;;;7.72;;
72557;SDS011;60583;50.094;8.748;2023-06-10T08:35:26;9.00;;;7.63;;
72557;SDS011;60583;50.094;8.748;2023-06-10T08:37:52;8.93;;;7.40;;
72557;SDS011;60583;50.094;8.748;2023-06-10T08:40:17;8.52;;;7.53;;
72557;SDS011;60583;50.094;8.748;2023-06-10T08:42:43;9.30;;;7.30;;
72557;SDS011;60583;50.094;8.748;2023-06-10T08:45:16;9.20;;;7.53;;
72557;SDS011;60583;50.094;8.748;2023-06-10T08:47:43;10.25;;;7.60;;
72557;SDS011;60583;50.094;8.748;2023-06-10T08:50:10;8.90;;;7.97;;
72557;SDS011;60583;50.094;8.748;2023-06-10T08:52:36;9.30;;;8.07;;
72557;SDS011;60583;50.094;8.748;2023-06-10T08:55:03;8.50;;;7.60;;
72557;SDS011;60583;50.094;8.748;2023-06-10T08:57:35;9.23;;;7.88;;
72557;SDS011;60583;50.094;8.748;2023-06-10T09:00:01;9.73;;;7.93;;
72557;SDS011;60583;50.094;8.748;2023-06-10T09:02:28;10.25;;;7.63;;
72557;SDS011;60583;50.094;8.748;2023-06-10T09:04:53;9.40;;;8.20;;
72557;SDS011;60583;50.094;8.748;2023-06-10T09:07:21;8.25;;;7.15;;
72557;SDS011;60583;50.094;8.748;2023-06-10T09:09:48;8.77;;;7.78;;
72557;SDS011;60583;50.094;8.748;2023-06-10T09:12:14;10.68;;;8.10;;
72557;SDS011;60583;50.094;8.748;2023-06-10T09:14:40;10.07;;;7.65;;
72557;SDS011;60583;50.094;8.748;2023-06-10T09:17:07;9.23;;;8.25;;
72557;SDS011;60583;50.094;8.748;2023-06-10T09:19:32;8.57;;;7.68;;
72557;SDS011;60583;50.094;8.748;2023-06-10T09:21:58;9.30;;;7.90;;
72557;SDS011;60583;50.094;8.748;2023-06-10T09:24:24;9.30;;;7.30;;
72557;SDS011;60583;50.094;8.748;2023-06-10T09:26:49;8.95;;;7.45;;
72557;SDS011;60583;50.094;8.748;2023-06-10T09:29:16;9.13;;;7.60;;
72557;SDS011;60583;50.094;8.748;2023-06-10T09:31:42;9.18;;;7.97;;
72557;SDS011;60583;50.094;8.748;2023-06-10T09:34:12;8.77;;;7.88;;
72557;SDS011;60583;50.094;8.748;2023-06-10T09:36:40;8.18;;;7.38;;
72557;SDS011;60583;50.094;8.748;2023-06-10T09:39:13;10.85;;;9.48;;
72557;SDS011;60583;50.094;8.748;2023-06-10T09:41:43;8.63;;;7.20;;
72557;SDS011;60583;50.094;8.748;2023-06-10T09:44:16;8.75;;;7.85;;
72557;SDS011;60583;50.094;8.748;2023-06-10T09:46:42;9.15;;;7.53;;
72557;SDS011;60583;50.094;8.748;2023-06-10T09:49:10;8.50;;;7.45;;
72557;SDS011;60583;50.094;8.748;2023-06-10T09:51:36;10.13;;;7.78;;
72557;SDS011;60583;50.094;8.748;2023-06-10T09:54:02;9.10;;;7.75;;
72557;SDS011;60583;50.094;8.748;2023-06-10T09:56:35;9.07;;;7.32;;
72557;SDS011;60583;50.094;8.748;2023-06-10T09:59:01;7.90;;;6.95;;
72557;SDS011;60583;50.094;8.748;2023-06-10T10:01:27;8.30;;;7.50;;
72557;SDS011;60583;50.094;8.748;2023-06-10T10:03:52;8.75;;;7.05;;
72557;SDS011;60583;50.094;8.748;2023-06-10T10:06:19;8.77;;;7.70;;
72557;SDS011;60583;50.094;8.748;2023-06-10T10:08:46;9.20;;;7.65;;
72557;SDS011;60583;50.094;8.748;2023-06-10T10:11:17;9.13;;;7.43;;
72557;SDS011;60583;50.094;8.748;2023-06-10T10:13:48;8.75;;;7.60;;
72557;SDS011;60583;50.094;8.748;2023-06-10T10:16:22;8.98;;;7.57;;
72557;SDS011;60583;50.094;8.748;2023-06-10T10:18:57;9.60;;;7.35;;
72557;SDS011;60583;50.094;8.748;2023-06-10T10:21:27;8.18;;;7.38;;
72557;SDS011;60583;50.094;8.748;2023-06-10T10:24:09;8.35;;;7.05;;
72557;SDS011;60583;50.094;8.748;2023-06-10T10:29:16;7.47;;;6.30;;
72557;SDS011;60583;50.094;8.748;2023-06-10T10:31:48;8.57;;;6.63;;
72557;SDS011;60583;50.094;8.748;2023-06-10T10:34:16;9.07;;;6.75;;
72557;SDS011;60583;50.094;8.748;2023-06-10T10:36:46;9.02;;;6.85;;
72557;SDS011;60583;50.094;8.748;2023-06-10T10:39:13;7.95;;;7.13;;
72557;SDS011;60583;50.094;8.748;2023-06-10T10:41:40;7.53;;;6.15;;
72557;SDS011;60583;50.094;8.748;2023-06-10T10:44:06;8.20;;;6.38;;
72557;SDS011;60583;50.094;8.748;2023-06-10T10:49:09;7.53;;;6.72;;
72557;SDS011;60583;50.094;8.748;2023-06-10T10:51:37;7.70;;;6.90;;
72557;SDS011;60583;50.094;8.748;2023-06-10T10:54:11;8.80;;;7.13;;
72557;SDS011;60583;50.094;8.748;2023-06-10T10:57:09;7.53;;;6.35;;
72557;SDS011;60583;50.094;8.748;2023-06-10T11:04:59;7.47;;;6.25;;
72557;SDS011;60583;50.094;8.748;2023-06-10T11:07:25;10.38;;;6.18;;
72557;SDS011;60583;50.094;8.748;2023-06-10T11:12:25;6.90;;;6.20;;
72557;SDS011;60583;50.094;8.748;2023-06-10T11:14:54;6.45;;;5.78;;
72557;SDS011;60583;50.094;8.748;2023-06-10T11:17:21;7.50;;;6.57;;
72557;SDS011;60583;50.094;8.748;2023-06-10T11:19:46;6.63;;;6.03;;
72557;SDS011;60583;50.094;8.748;2023-06-10T11:22:18;7.05;;;6.28;;
72557;SDS011;60583;50.094;8.748;2023-06-10T11:24:47;6.75;;;6.05;;
72557;SDS011;60583;50.094;8.748;2023-06-10T11:30:17;6.68;;;5.80;;
72557;SDS011;60583;50.094;8.748;2023-06-10T11:32:44;6.15;;;5.07;;
72557;SDS011;60583;50.094;8.748;2023-06-10T11:35:11;7.35;;;5.97;;
72557;SDS011;60583;50.094;8.748;2023-06-10T11:37:37;6.82;;;5.88;;
72557;SDS011;60583;50.094;8.748;2023-06-10T11:40:02;6.88;;;5.68;;
72557;SDS011;60583;50.094;8.748;2023-06-10T11:42:28;6.63;;;5.28;;
72557;SDS011;60583;50.094;8.748;2023-06-10T11:44:54;6.15;;;5.13;;
72557;SDS011;60583;50.094;8.748;2023-06-10T11:47:20;6.22;;;5.38;;
72557;SDS011;60583;50.094;8.748;2023-06-10T11:49:55;6.60;;;4.88;;
72557;SDS011;60583;50.094;8.748;2023-06-10T11:52:30;6.97;;;5.68;;
72557;SDS011;60583;50.094;8.748;2023-06-10T11:54:58;6.47;;;5.80;;
72557;SDS011;60583;50.094;8.748;2023-06-10T11:57:24;6.30;;;5.70;;
72557;SDS011;60583;50.094;8.748;2023-06-10T11:59:49;8.48;;;7.22;;
72557;SDS011;60583;50.094;8.748;2023-06-10T12:02:17;8.38;;;7.40;;
72557;SDS011;60583;50.094;8.748;2023-06-10T12:04:44;7.38;;;6.55;;
72557;SDS011;60583;50.094;8.748;2023-06-10T12:07:14;7.68;;;6.95;;
72557;SDS011;60583;50.094;8.748;2023-06-10T12:09:42;7.35;;;6.25;;
72557;SDS011;60583;50.094;8.748;2023-06-10T12:12:08;7.18;;;5.93;;
72557;SDS011;60583;50.094;8.748;2023-06-10T12:14:54;7.35;;;6.65;;
72557;SDS011;60583;50.094;8.748;2023-06-10T12:17:20;7.88;;;6.75;;
72557;SDS011;60583;50.094;8.748;2023-06-10T12:19:47;8.50;;;6.97;;
72557;SDS011;60583;50.094;8.748;2023-06-10T12:22:13;8.98;;;6.20;;
72557;SDS011;60583;50.094;8.748;2023-06-10T12:25:12;9.48;;;6.53;;
72557;SDS011;60583;50.094;8.748;2023-06-10T12:27:32;6.57;;;5.82;;
72557;SDS011;60583;50.094;8.748;2023-06-10T12:29:59;7.57;;;5.75;;
72557;SDS011;60583;50.094;8.748;2023-06-10T12:32:37;7.63;;;6.18;;
72557;SDS011;60583;50.094;8.748;2023-06-10T12:35:06;7.10;;;5.82;;
72557;SDS011;60583;50.094;8.748;2023-06-10T12:37:33;8.00;;;5.93;;
72557;SDS011;60583;50.094;8.748;2023-06-10T12:40:02;7.93;;;6.47;;
72557;SDS011;60583;50.094;8.748;2023-06-10T12:42:28;7.72;;;5.82;;
72557;SDS011;60583;50.094;8.748;2023-06-10T12:44:55;8.05;;;6.20;;
72557;SDS011;60583;50.094;8.748;2023-06-10T12:47:31;6.95;;;6.13;;
72557;SDS011;60583;50.094;8.748;2023-06-10T12:50:00;7.65;;;6.40;;
72557;SDS011;60583;50.094;8.748;2023-06-10T12:52:26;7.70;;;6.18;;
72557;SDS011;60583;50.094;8.748;2023-06-10T12:54:53;7.53;;;5.78;;
72557;SDS011;60583;50.094;8.748;2023-06-10T12:57:20;8.35;;;6.60;;
72557;SDS011;60583;50.094;8.748;2023-06-10T12:59:46;7.60;;;6.82;;
72557;SDS011;60583;50.094;8.748;2023-06-10T13:02:17;7.10;;;6.40;;
72557;SDS011;60583;50.094;8.748;2023-06-10T13:04:45;8.63;;;6.70;;
72557;SDS011;60583;50.094;8.748;2023-06-10T13:07:11;7.40;;;6.60;;
72557;SDS011;60583;50.094;8.748;2023-06-10T13:09:37;7.00;;;6.30;;
72557;SDS011;60583;50.094;8.748;2023-06-10T13:12:02;7.43;;;5.85;;
72557;SDS011;60583;50.094;8.748;2023-06-10T13:14:28;7.63;;;6.25;;
72557;SDS011;60583;50.094;8.748;2023-06-10T13:16:54;7.18;;;5.70;;
72557;SDS011;60583;50.094;8.748;2023-06-10T13:19:20;8.00;;;6.03;;
72557;SDS011;60583;50.094;8.748;2023-06-10T13:21:49;7.82;;;6.53;;
72557;SDS011;60583;50.094;8.748;2023-06-10T13:24:14;7.30;;;5.88;;
72557;SDS011;60583;50.094;8.748;2023-06-10T13:26:40;7.28;;;6.40;;
72557;SDS011;60583;50.094;8.748;2023-06-10T13:29:06;6.97;;;6.28;;
72557;SDS011;60583;50.094;8.748;2023-06-10T13:31:33;7.20;;;6.45;;
72557;SDS011;60583;50.094;8.748;2023-06-10T13:33:58;6.85;;;6.03;;
72557;SDS011;60583;50.094;8.748;2023-06-10T13:36:24;8.18;;;6.53;;
72557;SDS011;60583;50.094;8.748;2023-06-10T13:38:49;7.60;;;6.20;;
72557;SDS011;60583;50.094;8.748;2023-06-10T13:41:15;6.43;;;5.82;;
72557;SDS011;60583;50.094;8.748;2023-06-10T13:43:40;7.53;;;5.50;;
72557;SDS011;60583;50.094;8.748;2023-06-10T13:46:06;7.00;;;5.30;;
72557;SDS011;60583;50.094;8.748;2023-06-10T13:48:31;7.43;;;6.15;;
72557;SDS011;60583;50.094;8.748;2023-06-10T13:50:57;7.15;;;5.30;;
72557;SDS011;60583;50.094;8.748;2023-06-10T13:53:22;6.85;;;5.20;;
72557;SDS011;60583;50.094;8.748;2023-06-10T13:55:48;7.03;;;5.03;;
72557;SDS011;60583;50.094;8.748;2023-06-10T13:58:13;7.07;;;5.05;;
72557;SDS011;60583;50.094;8.748;2023-06-10T14:00:39;6.70;;;5.13;;
72557;SDS011;60583;50.094;8.748;2023-06-10T14:03:04;7.53;;;5.03;;
72557;SDS011;60583;50.094;8.748;2023-06-10T14:05:30;6.00;;;5.05;;
72557;SDS011;60583;50.094;8.748;2023-06-10T14:07:55;7.97;;;5.03;;
72557;SDS011;60583;50.094;8.748;2023-06-10T14:10:21;6.13;;;5.00;;
72557;SDS011;60583;50.094;8.748;2023-06-10T14:12:46;7.85;;;5.35;;
72557;SDS011;60583;50.094;8.748;2023-06-10T14:15:11;7.05;;;5.15;;
72557;SDS011;60583;50.094;8.748;2023-06-10T14:17:37;5.80;;;5.05;;
72557;SDS011;60583;50.094;8.748;2023-06-10T14:20:02;6.13;;;5.25;;
72557;SDS011;60583;50.094;8.748;2023-06-10T14:22:29;6.43;;;5.72;;
72557;SDS011;60583;50.094;8.748;2023-06-10T14:24:54;12.60;;;10.07;;
72557;SDS011;60583;50.094;8.748;2023-06-10T14:27:20;6.85;;;5.28;;
72557;SDS011;60583;50.094;8.748;2023-06-10T14:29:45;7.45;;;6.10;;
72557;SDS011;60583;50.094;8.748;2023-06-10T14:32:11;8.50;;;5.88;;
72557;SDS011;60583;50.094;8.748;2023-06-10T14:34:37;8.38;;;6.20;;
72557;SDS011;60583;50.094;8.748;2023-06-10T14:37:04;6.45;;;5.30;;
72557;SDS011;60583;50.094;8.748;2023-06-10T14:39:32;6.25;;;5.15;;
72557;SDS011;60583;50.094;8.748;2023-06-10T14:41:58;7.55;;;5.50;;
72557;SDS011;60583;50.094;8.748;2023-06-10T14:44:23;6.40;;;5.53;;
72557;SDS011;60583;50.094;8.748;2023-06-10T14:46:48;7.00;;;5.57;;
72557;SDS011;60583;50.094;8.748;2023-06-10T14:49:14;7.93;;;5.80;;
72557;SDS011;60583;50.094;8.748;2023-06-10T14:51:39;6.30;;;5.38;;
72557;SDS011;60583;50.094;8.748;2023-06-10T14:54:05;6.07;;;4.80;;
72557;SDS011;60583;50.094;8.748;2023-06-10T14:56:30;7.93;;;5.70;;